Warm Springs Summit, Nevada Weather observations

Data are for observation ending at time listed.
 Day   Time    Ave.   Ave.  Ave.  Vector   Max.   Stn.    Total    Solar   Ave.  
  of    of     Air    Rel.  Wind   Wind    Wind   Baro.  Precip.   Rad.    Soil  
Year   Day     Temp.  Hum.  Speed  Dir.    Gust   Pres.                    Temp. 
2016   (PST)    F      %     mph   deg.    mph     mb.     in.     W/m2     F   
------------------------------------------------------------------------------
 206   18:30   82.1     8   14.9   237     21.4   775.8    0.00      56    87.2
 206   18:40   81.5     8   14.2   242     20.1   775.8    0.00      31    87.1
 206   18:50   81.1     8   14.9   217     23.8   775.8    0.00      13    87.0
 206   19:00   80.4     9   19.5   210     26.4   775.7    0.00       5    87.0
 206   19:10   80.2     9   21.5   214     27.9   775.6    0.00       2    86.9
 206   19:20   79.8     9   19.8   213     26.9   775.7    0.00       0    86.8
 206   19:30   79.4     9   21.2   214     27.4   775.7    0.00       0    86.6
 206   19:40   78.4     9   20.0   207     30.0   775.7    0.00       0    86.5
 206   19:50   78.2    10   23.4   210     28.6   775.7    0.00       0    86.4
 206   20:00   77.6    10   20.9   210     26.6   775.8    0.00       0    86.2
 206   20:10   77.3    10   21.8   209     25.9   775.8    0.00       0    86.1
 206   20:20   77.1    10   22.1   212     27.3   775.9    0.00       0    85.8
 206   20:30   77.3    10   24.7   213     31.2   775.9    0.00       0    85.8
 206   20:40   77.2    10   24.3   214     31.0   775.9    0.00       0    85.6
 206   20:50   77.1    10   24.3   214     31.8   775.9    0.00       0    85.5
 206   21:00   77.0    10   25.8   214     33.1   775.8    0.00       0    85.3
 206   21:10   76.9    10   24.9   216     31.9   775.9    0.00       0    85.1
 206   21:20   77.2    10   25.2   215     32.0   775.9    0.00       0    85.0
 206   21:30   77.1    10   22.3   216     30.8   776.0    0.00       0    84.8
 206   21:40   77.0    10   21.1   222     30.2   776.0    0.00       0    84.7
 206   21:50   76.6     9   23.9   225     35.8   776.0    0.00       0    84.5
 206   22:00   76.7     9   23.7   220     39.6   775.9    0.00       0    84.3
 206   22:10   76.6     9   24.5   224     38.7   775.9    0.00       0    84.2
 206   22:20   76.2     9   26.8   229     35.9   775.9    0.00       0    84.0
 206   22:30   76.2     9   25.5   231     34.0   775.9    0.00       0    83.9
 206   22:40   76.0     9   27.4   232     37.0   775.9    0.00       0    83.7
 206   22:50   75.8     9   29.4   234     36.8   775.9    0.00       0    83.6
 206   23:00   75.7     9   29.1   234     35.1   775.9    0.00       0    83.4
 206   23:10   75.5     9   28.6   237     36.6   776.0    0.00       0    83.2
 206   23:20   75.1     9   25.6   239     32.8   776.0    0.00       0    83.1
 206   23:30   75.1     9   26.3   239     34.2   776.1    0.00       0    83.0
 206   23:40   74.9     9   25.2   240     34.3   776.1    0.00       0    82.8
 206   23:50   74.9     9   26.9   237     33.1   776.1    0.00       0    82.7
 207    0:00   74.7     9   26.4   241     33.4   776.1    0.00       0    82.5
 207    0:10   74.5     9   27.5   247     32.4   776.1    0.00       0    82.4
 207    0:20   74.4     9   26.7   245     32.2   776.1    0.00       0    82.3
 207    0:30   74.1    10   27.7   250     34.5   776.0    0.00       0    82.1
 207    0:40   73.4    10   25.1   252     31.5   776.0    0.00       0    82.0
 207    0:50   72.4    10   22.2   256     27.5   776.1    0.00       0    81.8
 207    1:00   72.1    10   21.0   254     26.4   776.1    0.00       0    81.7
 207    1:10   72.3    10   21.5   256     25.2   776.1    0.00       0    81.6
 207    1:20   72.7    10   22.2   261     26.6   776.1    0.00       0    81.5
 207    1:30   72.5    10   21.7   262     27.8   776.2    0.00       0    81.3
 207    1:40   71.9    11   19.2   260     24.2   776.2    0.00       0    81.2
 207    1:50   71.8    11   20.4   261     25.1   776.2    0.00       0    81.1
 207    2:00   71.6    11   20.3   261     25.1   776.3    0.00       0    80.9
 207    2:10   70.6    11   17.9   259     21.0   776.4    0.00       0    80.8
 207    2:20   70.2    11   16.8   261     19.9   776.5    0.00       0    80.7
 207    2:30   70.2    11   16.5   266     19.0   776.5    0.00       0    80.6
 207    2:40   70.4    11   15.1   265     17.9   776.5    0.00       0    80.4
 207    2:50   70.2    11   16.3   268     19.8   776.5    0.00       0    80.3
 207    3:00   70.1    11   15.6   269     19.0   776.5    0.00       0    80.2
 207    3:10   70.1    11   15.1   267     17.9   776.6    0.00       0    80.1
 207    3:20   69.9    11   15.6   264     17.6   776.7    0.00       0    79.9
 207    3:30   69.7    11   16.4   255     19.3   776.7    0.00       0    79.8
 207    3:40   69.7    11   17.5   248     20.1   776.6    0.00       0    79.7
 207    3:50   69.9    11   18.2   245     21.9   776.7    0.00       0    79.5
 207    4:00   70.1    12   18.6   241     21.5   776.8    0.00       0    79.4
 207    4:10   69.6    12   16.5   241     19.7   776.9    0.00       0    79.3
 207    4:20   68.9    12   14.5   248     16.6   777.0    0.00       0    79.1
 207    4:30   68.7    12   12.1   250     15.2   777.2    0.00       1    79.0
 207    4:40   69.0    12   11.4   243     15.2   777.3    0.00       5    78.9
 207    4:50   69.4    12   11.9   242     17.2   777.4    0.00      12    78.7
 207    5:00   70.3    12   13.2   238     15.4   777.4    0.00      28    78.6
 207    5:10   70.5    12   13.0   239     16.3   777.4    0.00      54    78.5
 207    5:20   70.7    12   12.7   235     15.5   777.5    0.00      88    78.4
 207    5:30   71.0    12   12.9   233     14.9   777.6    0.00     124    78.2
 207    5:40   71.1    12   12.1   238     15.5   777.6    0.00     155    78.1
 207    5:50   71.0    12   11.2   244     12.6   777.7    0.00     187    78.0
 207    6:00   71.0    12    9.9   256     11.8   777.8    0.00     220    77.9
 207    6:10   71.1    12   10.3   252     13.2   777.8    0.00     253    77.8
 207    6:20   71.3    12   10.0   257     13.8   777.8    0.00     288    77.6
 207    6:30   71.5    12    9.9   260     13.3   777.9    0.00     322    77.5
 207    6:40   71.7    12   10.5   252     14.8   777.9    0.00     357    77.4
 207    6:50   71.6    12    9.7   261     12.8   778.0    0.00     392    77.3
 207    7:00   72.1    12    8.6   265     12.8   778.0    0.00     427    77.3
 207    7:10   72.5    12    7.1   274      9.4   778.1    0.00     461    77.2
 207    7:20   73.5    12    5.4   275      6.8   778.2    0.00     495    77.1
 207    7:30   74.0    12    6.3   276      9.0   778.2    0.00     529    77.1
 207    7:40   74.5    12    6.9   278      9.9   778.3    0.00     562    77.1
 207    7:50   74.9    11    6.6   273      9.1   778.3    0.00     595    77.0
 207    8:00   75.7    11    6.6   275      9.5   778.4    0.00     628    77.0
 207    8:10   76.3    11    4.7   280      7.8   778.4    0.00     659    77.0
 207    8:20   77.6    11    4.1   250      8.0   778.5    0.00     690    77.0
 207    8:30   78.4    10    5.5   235      9.8   778.5    0.00     720    77.1
 207    8:40   78.2    10    6.2   273      9.2   778.4    0.00     749    77.2
 207    8:50   77.9    10    5.7   271      9.8   778.5    0.00     776    77.2
 207    9:00   78.3    10    6.1   280      9.6   778.5    0.00     800    77.3
 207    9:10   79.1    10    7.1   275     14.1   778.6    0.00     827    77.4
 207    9:20   79.0    10    8.5   276     12.7   778.6    0.00     852    77.6
 207    9:30   79.5    10    8.2   273     12.2   778.6    0.00     874    77.8
 207    9:40   79.8    10    6.9   270     13.5   778.6    0.00     895    78.0
 207    9:50   79.8    10    9.4   264     13.7   778.5    0.00     913    78.2
 207   10:00   80.0    10    8.6   258     12.3   778.5    0.00     933    78.3
 207   10:10   81.1    10   10.1   231     16.5   778.5    0.00     949    78.6
 207   10:20   81.1    10   10.3   240     16.4   778.5    0.00     966    78.8
 207   10:30   81.2    10   10.7   250     18.1   778.6    0.00     980    79.1
 207   10:40   82.3     9    6.2   245     12.8   778.5    0.00     989    79.3
 207   10:50   83.1     9    9.2   252     16.0   778.4    0.00    1001    79.6
 207   11:00   83.5     9    8.5   270     18.1   778.3    0.00    1011    79.9
 207   11:10   83.6     9    9.4   280     20.1   778.2    0.00    1016    80.2
 207   11:20   84.0     9   13.4   267     21.3   778.1    0.00    1021    80.5
 207   11:30   84.2     9   17.8   266     27.6   777.9    0.00    1023    80.8
 207   11:40   84.7     9   17.1   246     30.0   777.8    0.00    1026    81.1
 207   11:50   85.2     9   17.2   235     28.7   777.6    0.00    1027    81.4
 207   12:00   85.2     9   19.3   239     34.5   777.5    0.00    1020    81.8
 207   12:10   84.9     9   20.5   235     37.7   777.4    0.00    1012    82.1
 207   12:20   85.4     8   23.4   214     33.4   777.3    0.00    1020    82.4
 207   12:30   84.9     8   22.8   243     32.2   777.3    0.00    1021    82.7
 207   12:40   85.4     8   15.9   222     26.5   777.5    0.00    1007    83.1
 207   12:50   85.7     8   16.9   195     25.6   777.5    0.00    1000    83.4
 207   13:00   85.9     8   17.8   238     34.8   777.5    0.00     997    83.7
 207   13:10   86.1     8   20.6   227     32.3   777.3    0.00     983    84.0
 207   13:20   86.8     8   16.3   204     27.0   777.3    0.00     970    84.3
 207   13:30   85.9     8   18.8   240     30.8   777.2    0.00     960    84.6
 207   13:40   85.9     8   19.2   260     28.9   777.1    0.00     940    84.8
 207   13:50   86.3     8   20.8   259     35.1   777.0    0.00     918    85.1
 207   14:00   85.3     8   19.9   244     30.3   777.0    0.00     898    85.3
 207   14:10   85.6     8   18.1   256     30.0   776.9    0.00     873    85.6
 207   14:20   86.7     8   13.1   256     21.5   777.0    0.00     849    85.9
 207   14:30   86.5     8   20.0   247     29.9   776.8    0.00     830    86.1
 207   14:40   87.3     8   12.5   239     22.7   776.9    0.00     808    86.3
 207   14:50   86.8     7   18.1   241     29.4   776.7    0.00     784    86.6
 207   15:00   87.6     7   16.2   256     29.3   776.8    0.00     750    86.8
 207   15:10   87.2     7   15.3   244     27.5   776.6    0.00     722    87.0
 207   15:20   85.5     7   18.3   228     29.6   776.5    0.00     701    87.2
 207   15:30   85.5     7   20.4   240     29.4   776.5    0.00     666    87.3
 207   15:40   85.6     8   18.5   230     26.1   776.5    0.00     631    87.5
 207   15:50   86.1     8   13.5   225     25.8   776.5    0.00     597    87.7
 207   16:00   85.6     8   16.5   235     26.3   776.4    0.00     564    87.9
 207   16:10   86.0     8   20.0   218     33.1   776.3    0.00     530    88.0
 207   16:20   85.2     8   18.9   208     28.0   776.3    0.00     498    88.1
 207   16:30   85.6     8   13.1   242     23.3   776.4    0.00     466    88.2
 207   16:40   86.0     8   19.8   255     32.9   776.2    0.00     432    88.2
 207   16:50   85.2     8   22.6   248     32.4   776.2    0.00     395    88.3
 207   17:00   85.3     8   12.7   261     25.6   776.4    0.00     362    88.4
 207   17:10   85.0     8   15.2   235     27.3   776.3    0.00     326    88.4
 207   17:20   84.2     8   16.2   228     26.6   776.3    0.00     290    88.4
 207   17:30   84.4     8   19.5   244     27.7   776.2    0.00     253    88.4
 207   17:40   83.9     8   16.0   234     21.2   776.4    0.00     220    88.3
 207   17:50   83.6     8   15.6   241     22.3   776.4    0.00     186    88.2
 207   18:00   83.4     8   13.7   244     21.3   776.4    0.00     154    88.3
 207   18:10   82.8     8   13.4   233     20.5   776.5    0.00     122    88.2
 207   18:20   82.4     9   17.1   238     23.8   776.4    0.00      68    88.3

Return to Warm Springs Summit, Nevada graphs page.


Western Regional Climate Center,wrcc@dri.edu